Time;durP1;ratioP1;P1;durP2;ratioP2;P2;SDS_P1;SDS_P2;PMS_P1;PMS_P2;Temp;Humidity;BMP_temperature;BMP_pressure;BME280_temperature;BME280_humidity;BME280_pressure;Samples;Min_cycle;Max_cycle;Signal;HPM_P1;HPM_P2
2021/05/19 00:02:39;;;;;;;15.60;13.00;;;;;7.90;101109.00;;;;10466450;28;20193;-75
2021/05/19 00:07:42;;;;;;;14.80;12.23;;;;;7.90;101111.00;;;;10500036;28;20988;-75
2021/05/19 00:12:44;;;;;;;13.80;11.33;;;;;7.90;101095.00;;;;10507183;28;20537;-75
2021/05/19 00:17:46;;;;;;;14.13;12.57;;;;;7.90;101099.00;;;;10507235;28;20695;-75
2021/05/19 00:22:49;;;;;;;17.17;13.40;;;;;7.90;101095.00;;;;10490231;28;20239;-75
2021/05/19 00:27:53;;;;;;;19.00;13.87;;;;;7.90;101094.00;;;;10506915;28;20193;-75
2021/05/19 00:32:54;;;;;;;17.47;13.50;;;;;7.80;101086.00;;;;10506464;28;20193;-75
2021/05/19 00:37:56;;;;;;;15.90;13.47;;;;;7.80;101088.00;;;;10523683;28;20631;-75
2021/05/19 00:42:58;;;;;;;14.73;12.07;;;;;7.70;101080.00;;;;10506062;28;20276;-75
2021/05/19 00:48:02;;;;;;;20.50;12.30;;;;;7.70;101076.00;;;;10506563;28;20265;-75
2021/05/19 00:53:06;;;;;;;17.47;12.57;;;;;7.60;101076.00;;;;10489551;28;20529;-75
2021/05/19 00:58:08;;;;;;;18.13;11.70;;;;;7.60;101074.00;;;;10522236;28;20240;-75
2021/05/19 01:03:15;;;;;;;18.13;11.77;;;;;7.60;101070.00;;;;10506631;28;20193;-75
2021/05/19 01:13:41;;;;;;;17.33;10.63;;;;;7.50;101063.00;;;;10505782;28;20223;-75
2021/05/19 01:18:43;;;;;;;18.03;10.30;;;;;7.50;101064.00;;;;10487708;28;20216;-75
2021/05/19 01:23:45;;;;;;;15.67;8.80;;;;;7.50;101056.00;;;;10488133;28;20197;-75
2021/05/19 01:28:47;;;;;;;14.50;8.27;;;;;7.50;101055.00;;;;10463066;28;20193;-74
2021/05/19 01:33:51;;;;;;;19.13;8.23;;;;;7.50;101070.00;;;;10479847;28;20221;-75
2021/05/19 01:38:53;;;;;;;17.20;8.63;;;;;7.50;101068.00;;;;10497198;28;20205;-75
2021/05/19 01:43:55;;;;;;;14.67;8.60;;;;;7.50;101074.00;;;;10496778;28;20267;-75
2021/05/19 01:49:17;;;;;;;12.10;7.60;;;;;7.40;101067.00;;;;10496483;28;20185;-75
2021/05/19 01:54:20;;;;;;;15.27;7.97;;;;;7.40;101067.00;;;;10486791;28;20232;-74
2021/05/19 01:59:22;;;;;;;14.83;8.20;;;;;7.50;101058.00;;;;10504932;28;20212;-75
2021/05/19 02:04:30;;;;;;;20.13;8.73;;;;;7.50;101069.00;;;;10504864;28;20250;-75
2021/05/19 02:09:32;;;;;;;18.23;8.00;;;;;7.50;101060.00;;;;10486331;28;20242;-75
2021/05/19 02:14:38;;;;;;;18.70;7.30;;;;;7.50;101064.00;;;;10521267;28;20197;-75
2021/05/19 02:19:42;;;;;;;20.27;6.93;;;;;7.50;101065.00;;;;10503321;28;20205;-75
2021/05/19 02:24:44;;;;;;;15.93;6.23;;;;;7.40;101065.00;;;;10503594;28;20254;-75
2021/05/19 02:29:53;;;;;;;14.33;5.50;;;;;7.30;101069.00;;;;10490605;28;20277;-75
2021/05/19 02:34:55;;;;;;;18.33;6.70;;;;;7.40;101075.00;;;;10478217;28;20191;-75
2021/05/19 02:39:58;;;;;;;10.23;5.93;;;;;7.30;101075.00;;;;10511741;28;20209;-75
2021/05/19 02:45:00;;;;;;;15.13;6.00;;;;;7.30;101077.00;;;;10511015;28;20255;-75
2021/05/19 02:50:04;;;;;;;17.73;5.60;;;;;7.30;101077.00;;;;10510623;28;20189;-75
2021/05/19 02:55:06;;;;;;;18.67;6.60;;;;;7.30;101074.00;;;;10523702;28;20242;-75
2021/05/19 03:00:08;;;;;;;20.83;5.60;;;;;7.30;101068.00;;;;10510165;28;20688;-75
2021/05/19 03:05:11;;;;;;;14.53;5.67;;;;;7.30;101063.00;;;;10509599;28;20213;-75
2021/05/19 03:10:13;;;;;;;14.60;5.33;;;;;7.30;101059.00;;;;10510288;28;20246;-75
2021/05/19 03:15:15;;;;;;;18.03;5.77;;;;;7.20;101063.00;;;;10526144;28;20192;-75
2021/05/19 03:20:17;;;;;;;16.53;7.37;;;;;7.30;101069.00;;;;10509760;28;20266;-75
2021/05/19 03:25:19;;;;;;;15.47;6.23;;;;;7.50;101077.00;;;;10508522;28;20204;-75
2021/05/19 03:30:22;;;;;;;12.33;6.13;;;;;7.70;101075.00;;;;10508979;28;20594;-75
2021/05/19 03:35:24;;;;;;;15.90;6.93;;;;;7.80;101066.00;;;;10509748;28;20193;-75
2021/05/19 03:40:26;;;;;;;19.70;7.83;;;;;8.00;101074.00;;;;10508726;28;20213;-75
2021/05/19 03:45:28;;;;;;;20.93;8.17;;;;;8.10;101074.00;;;;10525211;28;20201;-75
2021/05/19 03:50:31;;;;;;;20.57;7.13;;;;;8.10;101071.00;;;;10542596;28;20651;-75
2021/05/19 03:55:33;;;;;;;10.93;6.30;;;;;8.00;101070.00;;;;10525695;28;20185;-75
2021/05/19 04:00:35;;;;;;;15.07;6.10;;;;;7.90;101072.00;;;;10507973;28;20246;-75
2021/05/19 04:05:38;;;;;;;14.50;5.83;;;;;8.00;101079.00;;;;10508737;28;20217;-76
2021/05/19 04:10:40;;;;;;;11.77;4.87;;;;;8.10;101075.00;;;;10491057;28;20193;-76
2021/05/19 04:15:42;;;;;;;13.13;5.20;;;;;8.20;101074.00;;;;10507189;28;20189;-77
2021/05/19 04:20:44;;;;;;;15.93;5.23;;;;;8.40;101066.00;;;;10490471;28;20212;-76
2021/05/19 04:25:46;;;;;;;11.63;5.07;;;;;8.60;101076.00;;;;10523509;28;21005;-76
2021/05/19 04:30:48;;;;;;;12.63;5.30;;;;;8.70;101080.00;;;;10490106;28;20199;-76
2021/05/19 04:35:50;;;;;;;15.60;5.20;;;;;8.90;101089.00;;;;10490176;28;20193;-76
2021/05/19 04:40:52;;;;;;;16.40;4.93;;;;;9.00;101102.00;;;;10522821;28;20201;-76
2021/05/19 04:45:54;;;;;;;13.83;5.20;;;;;9.10;101088.00;;;;10505938;28;20255;-76
2021/05/19 04:50:56;;;;;;;12.73;4.93;;;;;9.20;101103.00;;;;10505462;28;20189;-76
2021/05/19 04:55:58;;;;;;;14.57;5.17;;;;;9.20;101103.00;;;;10522602;28;20227;-76
2021/05/19 05:00:59;;;;;;;12.83;4.63;;;;;9.30;101111.00;;;;10516492;28;20209;-75
2021/05/19 05:06:02;;;;;;;11.93;4.43;;;;;9.50;101116.00;;;;10456539;28;20742;-76
2021/05/19 05:11:20;;;;;;;17.80;7.20;;;;;9.70;101118.00;;;;10524663;28;20226;-76
2021/05/19 05:16:22;;;;;;;17.90;6.90;;;;;10.00;101124.00;;;;10522974;28;20193;-76
2021/05/19 05:21:24;;;;;;;18.13;5.67;;;;;10.00;101127.00;;;;10464453;28;20209;-75
2021/05/19 05:26:26;;;;;;;11.53;4.90;;;;;10.20;101137.00;;;;10522176;28;20591;-76
2021/05/19 05:31:28;;;;;;;16.30;5.20;;;;;10.30;101133.00;;;;10488763;28;20197;-75
2021/05/19 05:36:30;;;;;;;12.63;5.20;;;;;10.10;101140.00;;;;10504651;28;20189;-75
2021/05/19 05:41:32;;;;;;;15.47;5.23;;;;;10.00;101138.00;;;;10521274;28;20205;-75
2021/05/19 05:46:34;;;;;;;14.43;5.73;;;;;10.20;101142.00;;;;10504546;28;20189;-75
2021/05/19 05:51:36;;;;;;;17.47;5.40;;;;;10.60;101143.00;;;;10521631;28;20185;-76
2021/05/19 05:56:41;;;;;;;11.37;3.27;;;;;11.00;101154.00;;;;10479604;28;20227;-76
2021/05/19 06:01:42;;;;;;;9.03;3.20;;;;;11.40;101152.00;;;;10479770;28;20212;-76
2021/05/19 06:06:46;;;;;;;10.13;3.90;;;;;11.40;101145.00;;;;10510224;28;20216;-76
2021/05/19 06:11:48;;;;;;;8.53;3.70;;;;;11.40;101146.00;;;;10520815;28;20189;-75
2021/05/19 06:16:50;;;;;;;9.43;3.90;;;;;11.90;101145.00;;;;10504066;28;20243;-75
2021/05/19 06:21:52;;;;;;;9.60;3.40;;;;;12.80;101151.00;;;;10469665;28;20220;-76
2021/05/19 06:26:54;;;;;;;11.53;2.87;;;;;13.30;101151.00;;;;10511022;28;20205;-76
2021/05/19 06:31:56;;;;;;;7.03;3.00;;;;;13.90;101143.00;;;;10502767;28;20197;-75
2021/05/19 06:36:59;;;;;;;10.60;3.37;;;;;14.50;101151.00;;;;10488719;28;20288;-75
2021/05/19 06:42:01;;;;;;;10.73;2.53;;;;;15.70;101142.00;;;;10469239;28;20263;-75
2021/05/19 06:47:04;;;;;;;15.07;2.37;;;;;17.00;101152.00;;;;10485587;28;20217;-76
2021/05/19 06:52:05;;;;;;;14.83;3.40;;;;;16.40;101153.00;;;;10509949;28;20576;-76
2021/05/19 06:57:07;;;;;;;5.63;2.10;;;;;15.70;101163.00;;;;10510360;28;20663;-76
2021/05/19 07:02:09;;;;;;;8.20;2.03;;;;;15.10;101159.00;;;;10515874;28;20267;-75
2021/05/19 07:07:11;;;;;;;9.47;2.30;;;;;14.60;101167.00;;;;10510848;28;20229;-75
2021/05/19 07:12:13;;;;;;;10.73;2.67;;;;;14.00;101172.00;;;;10510284;28;20610;-76
2021/05/19 07:17:15;;;;;;;8.20;2.30;;;;;13.60;101174.00;;;;10493136;28;20200;-76
2021/05/19 07:22:17;;;;;;;9.83;2.80;;;;;12.90;101181.00;;;;10526501;28;20266;-76
2021/05/19 07:27:20;;;;;;;9.33;2.37;;;;;12.50;101177.00;;;;10484296;28;20237;-76
2021/05/19 07:32:22;;;;;;;10.27;3.53;;;;;12.30;101178.00;;;;10502366;28;20198;-76
2021/05/19 07:37:24;;;;;;;9.10;2.63;;;;;12.30;101187.00;;;;10467561;28;20197;-76
2021/05/19 07:42:26;;;;;;;12.40;2.50;;;;;12.20;101190.00;;;;10466614;28;20213;-76
2021/05/19 07:47:28;;;;;;;11.00;3.13;;;;;12.30;101181.00;;;;10466978;28;20194;-75
2021/05/19 07:52:29;;;;;;;12.70;3.47;;;;;12.50;101188.00;;;;10466699;28;20177;-75
2021/05/19 07:57:47;;;;;;;7.33;3.30;;;;;12.40;101189.00;;;;10466178;28;20204;-75
2021/05/19 08:02:48;;;;;;;13.07;3.53;;;;;12.20;101190.00;;;;10466407;28;20200;-75
2021/05/19 08:07:49;;;;;;;11.53;3.30;;;;;12.30;101196.00;;;;10507961;28;20204;-75
2021/05/19 08:12:51;;;;;;;8.90;3.30;;;;;12.50;101186.00;;;;10507178;28;20197;-75
2021/05/19 08:17:53;;;;;;;9.20;4.10;;;;;13.10;101178.00;;;;10507135;28;20181;-75
2021/05/19 08:22:55;;;;;;;8.93;3.80;;;;;13.60;101176.00;;;;10524078;28;20675;-75
2021/05/19 08:27:57;;;;;;;7.83;3.50;;;;;14.10;101178.00;;;;10506363;28;20726;-76
2021/05/19 08:32:59;;;;;;;10.10;2.80;;;;;14.60;101171.00;;;;10490254;28;20197;-76
2021/05/19 08:38:02;;;;;;;7.07;2.87;;;;;15.40;101175.00;;;;10541269;28;20208;-76
2021/05/19 08:43:04;;;;;;;4.10;2.30;;;;;16.10;101170.00;;;;10488318;28;20217;-75
2021/05/19 08:48:08;;;;;;;7.40;1.90;;;;;17.10;101156.00;;;;10497436;28;20625;-75
2021/05/19 08:53:09;;;;;;;5.13;1.87;;;;;18.00;101161.00;;;;10463718;28;20254;-75
2021/05/19 08:58:11;;;;;;;5.63;1.70;;;;;17.70;101154.00;;;;10472826;28;20205;-75
2021/05/19 09:03:17;;;;;;;2.17;1.27;;;;;16.70;101154.00;;;;10505125;28;20196;-75
2021/05/19 09:08:20;;;;;;;5.63;1.50;;;;;16.30;101158.00;;;;10522296;28;20243;-75
2021/05/19 09:13:35;;;;;;;3.57;1.67;;;;;16.10;101150.00;;;;10521793;28;20197;-75
2021/05/19 09:18:48;;;;;;;6.37;1.43;;;;;16.00;101146.00;;;;10488693;28;20257;-75
2021/05/19 09:23:51;;;;;;;4.83;1.60;;;;;15.90;101150.00;;;;10488465;28;20224;-75
2021/05/19 09:28:53;;;;;;;7.13;1.90;;;;;16.00;101155.00;;;;10504504;28;20254;-75
2021/05/19 09:33:55;;;;;;;5.60;1.83;;;;;16.10;101151.00;;;;10521810;28;20238;-75
2021/05/19 09:38:57;;;;;;;6.33;1.70;;;;;15.90;101160.00;;;;10489717;28;20749;-75
2021/05/19 09:44:00;;;;;;;5.17;1.80;;;;;15.70;101157.00;;;;10529438;28;20205;-76
2021/05/19 09:49:22;;;;;;;4.10;1.90;;;;;15.80;101160.00;;;;10471044;28;20221;-76
2021/05/19 09:54:44;;;;;;;5.20;2.13;;;;;16.10;101164.00;;;;10482124;28;20192;-76
2021/05/19 09:59:52;;;;;;;4.57;2.30;;;;;16.20;101164.00;;;;10495651;28;20299;-76
2021/05/19 10:04:58;;;;;;;3.03;1.60;;;;;16.80;101165.00;;;;10528846;28;20736;-75
2021/05/19 10:10:01;;;;;;;2.17;1.43;;;;;17.30;101164.00;;;;10512742;28;20201;-76
2021/05/19 10:15:13;;;;;;;3.23;2.13;;;;;17.70;101161.00;;;;10512362;28;20197;-75
2021/05/19 10:20:19;;;;;;;5.45;2.60;;;;;18.20;101146.00;;;;10506906;28;20213;-76
2021/05/19 10:25:34;;;;;;;3.63;2.58;;;;;18.60;101153.00;;;;10469952;28;20189;-74
2021/05/19 10:30:42;;;;;;;6.30;3.10;;;;;18.60;101145.00;;;;10511568;28;20195;-74
2021/05/19 10:35:44;;;;;;;4.40;3.15;;;;;19.10;101143.00;;;;10511440;28;20204;-74
2021/05/19 10:40:52;;;;;;;5.85;3.15;;;;;19.50;101125.00;;;;10505780;28;20210;-74
2021/05/19 10:46:00;;;;;;;3.60;2.80;;;;;20.00;101116.00;;;;10498379;28;20656;-74
2021/05/19 10:51:28;;;;;;;5.00;2.67;;;;;20.70;101105.00;;;;10510131;28;20196;-74
2021/05/19 11:01:53;;;;;;;2.30;1.40;;;;;21.30;101096.00;;;;10519154;28;20698;-75
2021/05/19 11:06:56;;;;;;;7.30;2.13;;;;;21.00;101071.00;;;;10502148;28;20213;-75
2021/05/19 11:12:16;;;;;;;3.42;1.23;;;;;21.30;101067.00;;;;10475148;28;20209;-74
2021/05/19 11:17:36;;;;;;;3.15;1.52;;;;;21.80;101056.00;;;;10480236;28;20205;-75
2021/05/19 11:22:38;;;;;;;3.42;1.55;;;;;20.50;101069.00;;;;10509470;28;20201;-75
2021/05/19 11:27:40;;;;;;;2.08;1.52;;;;;19.50;101059.00;;;;10509268;28;20242;-75
2021/05/19 11:32:44;;;;;;;3.00;2.00;;;;;18.90;101067.00;;;;10509852;28;20189;-75
2021/05/19 11:37:59;;;;;;;3.85;1.40;;;;;18.40;101074.00;;;;10526071;28;20188;-75
2021/05/19 11:43:01;;;;;;;2.33;1.80;;;;;18.40;101061.00;;;;10501786;28;20691;-74
2021/05/19 11:48:03;;;;;;;3.40;2.05;;;;;18.20;101062.00;;;;10508206;28;20193;-75
2021/05/19 11:53:12;;;;;;;3.42;2.50;;;;;18.40;101057.00;;;;10525363;28;20191;-75
2021/05/19 11:58:24;;;;;;;2.65;1.75;;;;;19.60;101047.00;;;;10512034;28;20225;-75
2021/05/19 12:03:31;;;;;;;4.13;1.90;;;;;22.20;101035.00;;;;10491098;28;20188;-76
2021/05/19 12:08:42;;;;;;;3.42;1.88;;;;;24.30;101037.00;;;;10512388;28;20212;-76
2021/05/19 12:13:46;;;;;;;2.45;2.00;;;;;23.50;101034.00;;;;10449298;28;20518;-76
2021/05/19 12:19:08;;;;;;;3.72;2.25;;;;;22.10;101041.00;;;;10449082;28;20558;-76
2021/05/19 12:24:12;;;;;;;4.40;2.78;;;;;23.40;101031.00;;;;10506732;28;20207;-76
2021/05/19 12:29:35;;;;;;;4.32;2.58;;;;;23.40;101044.00;;;;10506661;28;20660;-76
2021/05/19 12:34:37;;;;;;;3.60;2.25;;;;;24.50;101047.00;;;;10507120;28;20196;-76
2021/05/19 12:39:43;;;;;;;3.78;2.42;;;;;23.90;101052.00;;;;10523627;28;20197;-76
2021/05/19 12:44:58;;;;;;;5.25;2.90;;;;;22.80;101049.00;;;;10489318;28;20205;-76
2021/05/19 12:50:04;;;;;;;5.65;3.17;;;;;22.40;101046.00;;;;10522577;28;20246;-76
2021/05/19 12:55:07;;;;;;;5.43;3.28;;;;;23.10;101048.00;;;;10522938;28;20212;-75
2021/05/19 13:00:15;;;;;;;3.85;2.90;;;;;24.00;101038.00;;;;10540579;28;20344;-76
2021/05/19 13:05:28;;;;;;;3.17;2.03;;;;;24.60;101045.00;;;;10505542;28;20604;-75
2021/05/19 13:10:40;;;;;;;4.35;2.50;;;;;25.00;101050.00;;;;10505044;28;20189;-76
2021/05/19 13:21:14;;;;;;;4.88;2.50;;;;;22.90;101046.00;;;;10487689;28;20266;-76
2021/05/19 13:26:17;;;;;;;3.10;1.52;;;;;26.40;101029.00;;;;10503500;28;20693;-76
2021/05/19 13:31:21;;;;;;;3.95;2.10;;;;;26.70;101045.00;;;;10496719;28;20198;-76
2021/05/19 13:36:35;;;;;;;3.28;1.77;;;;;23.10;101046.00;;;;10493379;28;20326;-76
2021/05/19 13:41:39;;;;;;;1.52;1.27;;;;;21.40;101039.00;;;;10479220;28;20210;-77
2021/05/19 13:46:45;;;;;;;3.20;1.40;;;;;20.20;101043.00;;;;10479168;28;20209;-76
2021/05/19 13:51:50;;;;;;;1.85;1.17;;;;;20.30;101035.00;;;;10462692;28;20204;-76
2021/05/19 13:56:53;;;;;;;1.95;1.20;;;;;22.30;101027.00;;;;10504532;28;20675;-76
2021/05/19 14:01:55;;;;;;;5.68;1.40;;;;;22.90;101026.00;;;;10504763;28;20208;-76
2021/05/19 14:06:57;;;;;;;4.22;1.50;;;;;24.20;101017.00;;;;10503686;28;20216;-76
2021/05/19 14:12:03;;;;;;;4.15;1.65;;;;;28.40;101025.00;;;;10503734;28;20189;-76
2021/05/19 14:17:24;;;;;;;2.00;1.17;;;;;29.40;101024.00;;;;10479276;28;20205;-76
2021/05/19 14:27:48;;;;;;;0.93;0.70;;;;;20.10;101055.00;;;;10521103;28;20197;-76
2021/05/19 14:32:50;;;;;;;0.98;0.70;;;;;18.90;101051.00;;;;10511529;28;20188;-76
2021/05/19 14:48:58;;;;;;;2.10;1.30;;;;;17.40;101061.00;;;;10545310;28;20706;-76
2021/05/19 14:59:23;;;;;;;2.63;1.42;;;;;17.50;101067.00;;;;10510001;28;20193;-76
2021/05/19 15:04:25;;;;;;;2.28;1.63;;;;;17.30;101074.00;;;;10526534;28;20220;-76
2021/05/19 15:09:28;;;;;;;2.00;1.67;;;;;17.30;101071.00;;;;10510333;28;20188;-76
2021/05/19 15:14:31;;;;;;;1.52;1.42;;;;;17.00;101069.00;;;;10527173;28;20189;-76
2021/05/19 15:19:32;;;;;;;3.05;1.95;;;;;16.00;101086.00;;;;10527040;28;20282;-76
2021/05/19 15:24:34;;;;;;;4.43;2.73;;;;;15.00;101113.00;;;;10527034;28;20697;-76
2021/05/19 15:29:38;;;;;;;4.60;2.53;;;;;14.40;101121.00;;;;10467405;28;20288;-75
2021/05/19 15:34:40;;;;;;;4.00;2.40;;;;;14.00;101126.00;;;;10526218;28;20650;-75
2021/05/19 15:39:42;;;;;;;5.67;3.20;;;;;13.90;101130.00;;;;10490773;28;20545;-75
2021/05/19 15:44:46;;;;;;;4.90;3.27;;;;;13.90;101145.00;;;;10525178;28;20228;-76
2021/05/19 15:49:48;;;;;;;6.60;4.20;;;;;14.30;101155.00;;;;10491867;28;20197;-74
2021/05/19 15:54:50;;;;;;;8.47;3.70;;;;;15.10;101154.00;;;;10525504;28;20238;-74
2021/05/19 15:59:53;;;;;;;4.30;2.60;;;;;15.10;101163.00;;;;10473603;28;20699;-74
2021/05/19 16:04:55;;;;;;;3.13;2.17;;;;;14.70;101162.00;;;;10449869;28;20245;-76
2021/05/19 16:09:56;;;;;;;2.90;2.60;;;;;14.30;101177.00;;;;10482341;28;20680;-74
2021/05/19 16:14:58;;;;;;;3.23;2.73;;;;;14.10;101182.00;;;;10482826;28;20197;-73
2021/05/19 16:20:06;;;;;;;3.13;2.83;;;;;14.10;101186.00;;;;10500755;28;20208;-76
2021/05/19 16:25:08;;;;;;;4.30;2.80;;;;;14.00;101186.00;;;;10479847;28;20223;-74
2021/05/19 16:30:55;;;;;;;3.13;2.83;;;;;13.90;101202.00;;;;10523543;28;20270;-74
2021/05/19 16:35:57;;;;;;;5.23;3.33;;;;;13.90;101208.00;;;;10498557;28;20189;-74
2021/05/19 16:40:59;;;;;;;3.67;2.70;;;;;14.10;101204.00;;;;10506446;28;20212;-74
2021/05/19 16:46:02;;;;;;;5.40;3.27;;;;;14.50;101218.00;;;;10472992;28;20258;-74
2021/05/19 16:51:04;;;;;;;4.33;3.07;;;;;14.60;101220.00;;;;10466916;28;20231;-74
2021/05/19 16:56:06;;;;;;;2.50;2.30;;;;;14.60;101220.00;;;;10503075;28;20217;-74
2021/05/19 17:01:09;;;;;;;2.50;2.30;;;;;14.30;101229.00;;;;10522784;28;20243;-74
2021/05/19 17:06:10;;;;;;;3.77;2.20;;;;;13.90;101226.00;;;;10487954;28;20259;-74
2021/05/19 17:11:12;;;;;;;4.60;3.27;;;;;13.60;101236.00;;;;10505564;28;20192;-74
2021/05/19 17:16:14;;;;;;;5.03;2.57;;;;;13.00;101248.00;;;;10505550;28;20197;-75
2021/05/19 17:21:16;;;;;;;5.93;3.33;;;;;12.30;101261.00;;;;10511293;28;20209;-76
2021/05/19 17:26:18;;;;;;;9.17;4.83;;;;;12.30;101255.00;;;;10504215;28;20227;-77
2021/05/19 17:31:20;;;;;;;4.97;4.30;;;;;12.80;101263.00;;;;10505390;28;20193;-75
2021/05/19 17:36:24;;;;;;;5.00;4.50;;;;;12.90;101267.00;;;;10504675;28;20656;-74
2021/05/19 17:41:27;;;;;;;5.90;3.90;;;;;12.80;101270.00;;;;10520998;28;20291;-75
2021/05/19 17:46:29;;;;;;;6.27;3.70;;;;;12.70;101281.00;;;;10520833;28;20197;-75
2021/05/19 17:51:31;;;;;;;3.60;2.90;;;;;12.70;101283.00;;;;10504654;28;20611;-75
2021/05/19 17:56:34;;;;;;;5.00;2.47;;;;;13.00;101288.00;;;;10487699;28;20625;-76
2021/05/19 18:01:38;;;;;;;2.23;1.40;;;;;13.30;101293.00;;;;10525477;28;20212;-75
2021/05/19 18:06:48;;;;;;;2.50;1.27;;;;;13.50;101303.00;;;;10480345;28;20217;-75
2021/05/19 18:11:53;;;;;;;1.60;1.20;;;;;13.50;101304.00;;;;10470114;28;20188;-75
2021/05/19 18:16:56;;;;;;;1.83;1.20;;;;;13.40;101318.00;;;;10470190;28;20194;-75
2021/05/19 18:22:04;;;;;;;3.67;1.60;;;;;13.30;101332.00;;;;10486577;28;20252;-75
2021/05/19 18:27:09;;;;;;;2.83;1.50;;;;;13.30;101333.00;;;;10503040;28;20193;-75
2021/05/19 18:32:18;;;;;;;11.03;2.13;;;;;13.20;101345.00;;;;10503418;28;20236;-74
2021/05/19 18:37:21;;;;;;;2.33;1.63;;;;;12.90;101338.00;;;;10469655;28;20288;-74
2021/05/19 18:42:25;;;;;;;4.60;1.30;;;;;12.70;101361.00;;;;10502263;28;20209;-74
2021/05/19 18:47:27;;;;;;;5.57;2.00;;;;;12.30;101355.00;;;;10502406;28;20653;-74
2021/05/19 18:52:30;;;;;;;2.67;1.80;;;;;12.00;101366.00;;;;10502678;28;20193;-74
2021/05/19 18:57:32;;;;;;;2.33;2.00;;;;;11.90;101376.00;;;;10477896;28;20198;-74
2021/05/19 19:02:34;;;;;;;4.33;2.27;;;;;12.00;101381.00;;;;10497822;28;20681;-75
2021/05/19 19:07:37;;;;;;;5.00;2.10;;;;;12.10;101381.00;;;;10501391;28;20916;-75
2021/05/19 19:12:39;;;;;;;4.53;1.93;;;;;12.00;101382.00;;;;10501058;28;20193;-75
2021/05/19 19:17:42;;;;;;;3.03;1.90;;;;;11.80;101394.00;;;;10484341;28;20263;-75
2021/05/19 19:22:44;;;;;;;5.33;1.50;;;;;11.70;101398.00;;;;10484023;28;20612;-75
2021/05/19 19:27:46;;;;;;;1.67;1.30;;;;;11.70;101404.00;;;;10488935;28;20217;-75
2021/05/19 19:32:48;;;;;;;3.23;1.40;;;;;11.70;101405.00;;;;10501327;28;20270;-75
2021/05/19 19:37:51;;;;;;;3.27;2.13;;;;;11.50;101419.00;;;;10483963;28;20685;-75
2021/05/19 19:42:53;;;;;;;2.83;1.70;;;;;11.30;101435.00;;;;10483442;28;20228;-75
2021/05/19 19:48:04;;;;;;;4.10;1.67;;;;;11.10;101448.00;;;;10500221;28;20186;-75
2021/05/19 19:53:06;;;;;;;3.03;2.00;;;;;10.80;101449.00;;;;10483654;28;20190;-75
2021/05/19 19:58:11;;;;;;;2.40;1.83;;;;;10.60;101468.00;;;;10508012;28;20197;-75
2021/05/19 20:03:15;;;;;;;5.20;2.47;;;;;10.40;101469.00;;;;10482858;28;20202;-75
2021/05/19 20:08:17;;;;;;;2.33;2.03;;;;;10.30;101482.00;;;;10466283;28;20218;-75
2021/05/19 20:13:20;;;;;;;3.10;2.13;;;;;10.20;101486.00;;;;10465647;28;20190;-75
2021/05/19 20:18:22;;;;;;;2.87;2.13;;;;;10.10;101476.00;;;;10499697;28;20189;-75
2021/05/19 20:23:24;;;;;;;3.40;2.10;;;;;10.00;101484.00;;;;10464647;28;20209;-75
2021/05/19 20:28:26;;;;;;;5.30;2.20;;;;;9.90;101484.00;;;;10482018;28;20720;-75
2021/05/19 20:33:28;;;;;;;5.43;2.60;;;;;9.90;101484.00;;;;10481547;28;20241;-75
2021/05/19 20:38:30;;;;;;;3.43;3.10;;;;;9.70;101491.00;;;;10481568;28;20194;-74
2021/05/19 20:43:32;;;;;;;8.07;2.80;;;;;9.50;101501.00;;;;10490226;28;20216;-74
2021/05/19 20:48:33;;;;;;;6.87;2.90;;;;;9.30;101497.00;;;;10506858;28;20192;-76
2021/05/19 20:53:35;;;;;;;4.63;2.80;;;;;9.20;101509.00;;;;10523241;28;20201;-75
2021/05/19 20:58:37;;;;;;;8.30;3.53;;;;;9.10;101511.00;;;;10540791;28;20219;-75
2021/05/19 21:03:39;;;;;;;8.57;4.50;;;;;9.10;101502.00;;;;10489322;28;20208;-76
2021/05/19 21:08:41;;;;;;;6.13;4.33;;;;;9.00;101508.00;;;;10457545;28;20225;-75
2021/05/19 21:13:43;;;;;;;6.47;4.30;;;;;8.90;101515.00;;;;10480574;28;20637;-75
2021/05/19 21:18:45;;;;;;;7.03;4.10;;;;;8.90;101507.00;;;;10480384;28;20193;-75
2021/05/19 21:23:47;;;;;;;6.03;4.73;;;;;8.90;101512.00;;;;10463755;28;20217;-76
2021/05/19 21:28:49;;;;;;;5.03;3.90;;;;;8.90;101509.00;;;;10480616;28;20194;-76
2021/05/19 21:33:51;;;;;;;6.93;4.47;;;;;8.80;101503.00;;;;10479818;28;20626;-76
2021/05/19 21:38:52;;;;;;;7.90;5.17;;;;;8.70;101511.00;;;;10446362;28;20660;-75
2021/05/19 21:43:54;;;;;;;7.50;4.80;;;;;8.60;101508.00;;;;10462233;28;20221;-76
2021/05/19 21:48:56;;;;;;;8.77;5.93;;;;;8.60;101522.00;;;;10496279;28;20213;-75
2021/05/19 21:53:58;;;;;;;10.07;5.83;;;;;8.60;101529.00;;;;10467323;28;20656;-75
2021/05/19 21:59:00;;;;;;;11.00;6.40;;;;;8.60;101521.00;;;;10504898;28;20624;-76
2021/05/19 22:04:02;;;;;;;12.57;7.57;;;;;8.50;101523.00;;;;10487224;28;20263;-75
2021/05/19 22:09:08;;;;;;;12.83;8.23;;;;;8.50;101538.00;;;;10461787;28;20297;-76
2021/05/19 22:14:10;;;;;;;12.17;8.20;;;;;8.60;101530.00;;;;10462275;28;20641;-75
2021/05/19 22:19:21;;;;;;;11.63;7.73;;;;;8.50;101536.00;;;;10486280;28;20265;-76
2021/05/19 22:29:43;;;;;;;14.87;9.07;;;;;8.40;101534.00;;;;10545573;28;20646;-76
2021/05/19 22:34:45;;;;;;;18.37;9.67;;;;;8.40;101531.00;;;;10562036;28;20724;-75
2021/05/19 22:39:49;;;;;;;17.10;10.10;;;;;8.30;101536.00;;;;10528602;28;20267;-75
2021/05/19 22:44:51;;;;;;;14.37;10.63;;;;;8.20;101537.00;;;;10511870;28;20200;-75
2021/05/19 22:49:53;;;;;;;18.60;11.70;;;;;8.10;101544.00;;;;10535675;28;20200;-75
2021/05/19 22:54:54;;;;;;;16.30;12.70;;;;;8.10;101548.00;;;;10552388;28;20597;-75
2021/05/19 22:59:56;;;;;;;21.47;14.23;;;;;8.00;101547.00;;;;10552515;28;20218;-75
2021/05/19 23:04:58;;;;;;;22.07;15.17;;;;;8.00;101541.00;;;;10587885;28;20200;-75
2021/05/19 23:10:05;;;;;;;25.03;15.33;;;;;8.00;101538.00;;;;10535578;28;20200;-75
2021/05/19 23:15:07;;;;;;;21.07;15.43;;;;;7.90;101527.00;;;;10552465;28;20197;-76
2021/05/19 23:20:09;;;;;;;21.43;15.60;;;;;7.80;101527.00;;;;10551710;28;20188;-75
2021/05/19 23:25:12;;;;;;;22.63;15.47;;;;;7.70;101534.00;;;;10510447;28;20665;-75
2021/05/19 23:30:14;;;;;;;24.43;15.67;;;;;7.70;101534.00;;;;10467866;28;20197;-75
2021/05/19 23:35:17;;;;;;;19.97;14.03;;;;;7.60;101535.00;;;;10467562;28;20198;-75
2021/05/19 23:40:20;;;;;;;24.73;15.53;;;;;7.60;101544.00;;;;10500705;28;20209;-75
2021/05/19 23:45:22;;;;;;;22.27;15.60;;;;;7.50;101549.00;;;;10508299;28;20201;-75
2021/05/19 23:50:25;;;;;;;25.47;16.30;;;;;7.50;101537.00;;;;10524814;28;20199;-75
2021/05/19 23:55:28;;;;;;;24.50;16.63;;;;;7.50;101549.00;;;;10508500;28;20193;-75
